sensor_id;sensor_type;location;lat;lon;timestamp;pressure;altitude;pressure_sealevel;temperature;humidity
62703;BME280;66022;50.448;18.122;2023-02-03T00:01:29;99897.07;;;1.01;78.94
62703;BME280;66022;50.448;18.122;2023-02-03T00:05:43;99902.04;;;0.95;80.88
62703;BME280;66022;50.448;18.122;2023-02-03T00:09:57;99905.27;;;0.94;79.49
62703;BME280;66022;50.448;18.122;2023-02-03T00:14:11;99909.19;;;0.92;79.54
62703;BME280;66022;50.448;18.122;2023-02-03T00:18:25;99913.22;;;0.89;79.76
62703;BME280;66022;50.448;18.122;2023-02-03T00:22:39;99914.83;;;0.87;79.47
62703;BME280;66022;50.448;18.122;2023-02-03T00:26:53;99914.89;;;0.83;79.81
62703;BME280;66022;50.448;18.122;2023-02-03T00:35:21;99912.73;;;0.74;80.44
62703;BME280;66022;50.448;18.122;2023-02-03T00:39:35;99912.28;;;0.73;79.64
62703;BME280;66022;50.448;18.122;2023-02-03T00:43:49;99913.05;;;0.71;79.61
62703;BME280;66022;50.448;18.122;2023-02-03T00:48:03;99913.86;;;0.67;79.35
62703;BME280;66022;50.448;18.122;2023-02-03T00:52:17;99914.95;;;0.65;79.21
62703;BME280;66022;50.448;18.122;2023-02-03T00:56:31;99914.42;;;0.58;80.34
62703;BME280;66022;50.448;18.122;2023-02-03T01:00:45;99912.41;;;0.54;79.80
62703;BME280;66022;50.448;18.122;2023-02-03T01:04:59;99910.75;;;0.47;80.21
62703;BME280;66022;50.448;18.122;2023-02-03T01:09:13;99907.92;;;0.44;80.34
62703;BME280;66022;50.448;18.122;2023-02-03T01:13:27;99905.96;;;0.42;80.16
62703;BME280;66022;50.448;18.122;2023-02-03T01:17:41;99904.10;;;0.34;80.51
62703;BME280;66022;50.448;18.122;2023-02-03T01:21:55;99901.03;;;0.34;80.76
62703;BME280;66022;50.448;18.122;2023-02-03T01:26:13;99897.85;;;0.33;81.64
62703;BME280;66022;50.448;18.122;2023-02-03T01:30:24;99894.34;;;0.35;80.48
62703;BME280;66022;50.448;18.122;2023-02-03T01:34:37;99890.45;;;0.34;80.40
62703;BME280;66022;50.448;18.122;2023-02-03T01:38:51;99887.84;;;0.34;80.90
62703;BME280;66022;50.448;18.122;2023-02-03T01:43:07;99885.33;;;0.35;80.28
62703;BME280;66022;50.448;18.122;2023-02-03T01:51:33;99877.64;;;0.34;80.62
62703;BME280;66022;50.448;18.122;2023-02-03T01:55:47;99873.04;;;0.32;82.37
62703;BME280;66022;50.448;18.122;2023-02-03T02:00:02;99869.14;;;0.35;80.86
62703;BME280;66022;50.448;18.122;2023-02-03T02:04:15;99864.81;;;0.37;80.79
62703;BME280;66022;50.448;18.122;2023-02-03T02:08:29;99861.22;;;0.39;81.31
62703;BME280;66022;50.448;18.122;2023-02-03T02:12:43;99857.06;;;0.41;81.05
62703;BME280;66022;50.448;18.122;2023-02-03T02:17:00;99852.23;;;0.43;81.77
62703;BME280;66022;50.448;18.122;2023-02-03T02:46:40;99800.45;;;0.29;82.00
62703;BME280;66022;50.448;18.122;2023-02-03T02:50:50;99794.24;;;0.25;81.68
62703;BME280;66022;50.448;18.122;2023-02-03T02:55:06;99792.24;;;0.21;82.41
62703;BME280;66022;50.448;18.122;2023-02-03T02:59:17;99791.65;;;0.21;81.88
62703;BME280;66022;50.448;18.122;2023-02-03T03:03:31;99791.24;;;0.21;82.18
62703;BME280;66022;50.448;18.122;2023-02-03T03:07:53;99793.71;;;0.19;82.46
62703;BME280;66022;50.448;18.122;2023-02-03T03:12:00;99795.25;;;0.20;81.76
62703;BME280;66022;50.448;18.122;2023-02-03T03:16:14;99792.76;;;0.19;82.46
62703;BME280;66022;50.448;18.122;2023-02-03T03:20:27;99792.97;;;0.21;82.20
62703;BME280;66022;50.448;18.122;2023-02-03T03:24:46;99792.94;;;0.23;81.76
62703;BME280;66022;50.448;18.122;2023-02-03T03:33:09;99784.20;;;0.24;81.86
62703;BME280;66022;50.448;18.122;2023-02-03T03:41:42;99771.34;;;0.16;82.42
62703;BME280;66022;50.448;18.122;2023-02-03T03:50:07;99756.00;;;0.14;82.80
62703;BME280;66022;50.448;18.122;2023-02-03T03:54:20;99748.71;;;0.16;82.91
62703;BME280;66022;50.448;18.122;2023-02-03T03:58:33;99742.39;;;0.18;83.23
62703;BME280;66022;50.448;18.122;2023-02-03T04:02:49;99734.59;;;0.23;82.70
62703;BME280;66022;50.448;18.122;2023-02-03T04:07:01;99727.26;;;0.24;83.69
62703;BME280;66022;50.448;18.122;2023-02-03T04:11:15;99718.79;;;0.25;83.27
62703;BME280;66022;50.448;18.122;2023-02-03T04:15:30;99712.13;;;0.23;85.24
62703;BME280;66022;50.448;18.122;2023-02-03T04:19:43;99706.06;;;0.26;83.29
62703;BME280;66022;50.448;18.122;2023-02-03T04:23:57;99701.20;;;0.28;83.18
62703;BME280;66022;50.448;18.122;2023-02-03T04:28:11;99697.16;;;0.30;83.37
62703;BME280;66022;50.448;18.122;2023-02-03T04:32:25;99693.33;;;0.35;82.79
62703;BME280;66022;50.448;18.122;2023-02-03T04:36:39;99691.61;;;0.38;83.67
62703;BME280;66022;50.448;18.122;2023-02-03T04:40:53;99688.12;;;0.44;82.44
62703;BME280;66022;50.448;18.122;2023-02-03T04:45:08;99681.72;;;0.46;83.39
62703;BME280;66022;50.448;18.122;2023-02-03T04:49:21;99674.08;;;0.51;82.58
62703;BME280;66022;50.448;18.122;2023-02-03T04:53:37;99665.73;;;0.55;82.44
62703;BME280;66022;50.448;18.122;2023-02-03T04:57:53;99657.72;;;0.55;82.49
62703;BME280;66022;50.448;18.122;2023-02-03T05:02:04;99651.45;;;0.59;81.96
62703;BME280;66022;50.448;18.122;2023-02-03T05:06:21;99644.13;;;0.61;82.87
62703;BME280;66022;50.448;18.122;2023-02-03T05:10:32;99636.86;;;0.64;81.97
62703;BME280;66022;50.448;18.122;2023-02-03T05:14:45;99630.99;;;0.65;81.73
62703;BME280;66022;50.448;18.122;2023-02-03T05:19:00;99625.33;;;0.67;81.82
62703;BME280;66022;50.448;18.122;2023-02-03T05:23:13;99616.36;;;0.69;81.66
62703;BME280;66022;50.448;18.122;2023-02-03T05:27:27;99607.64;;;0.67;81.55
62703;BME280;66022;50.448;18.122;2023-02-03T05:31:41;99598.79;;;0.71;80.64
62703;BME280;66022;50.448;18.122;2023-02-03T05:35:55;99591.06;;;0.73;81.03
62703;BME280;66022;50.448;18.122;2023-02-03T05:40:10;99582.25;;;0.78;79.92
62703;BME280;66022;50.448;18.122;2023-02-03T05:44:24;99575.59;;;0.81;78.90
62703;BME280;66022;50.448;18.122;2023-02-03T05:48:37;99571.04;;;0.83;78.41
62703;BME280;66022;50.448;18.122;2023-02-03T05:52:52;99563.97;;;0.85;78.99
62703;BME280;66022;50.448;18.122;2023-02-03T05:57:05;99559.75;;;0.85;78.90
62703;BME280;66022;50.448;18.122;2023-02-03T06:01:20;99556.85;;;0.89;77.85
62703;BME280;66022;50.448;18.122;2023-02-03T06:05:34;99552.59;;;0.87;77.47
62703;BME280;66022;50.448;18.122;2023-02-03T06:09:48;99547.92;;;0.90;77.42
62703;BME280;66022;50.448;18.122;2023-02-03T06:14:02;99544.94;;;0.93;76.94
62703;BME280;66022;50.448;18.122;2023-02-03T06:18:15;99541.91;;;0.94;77.10
62703;BME280;66022;50.448;18.122;2023-02-03T06:22:30;99538.81;;;0.97;76.52
62703;BME280;66022;50.448;18.122;2023-02-03T06:26:44;99534.30;;;0.99;76.85
62703;BME280;66022;50.448;18.122;2023-02-03T06:30:58;99527.80;;;1.01;76.22
62703;BME280;66022;50.448;18.122;2023-02-03T06:35:12;99522.39;;;0.99;75.81
62703;BME280;66022;50.448;18.122;2023-02-03T06:39:26;99517.41;;;1.01;75.96
62703;BME280;66022;50.448;18.122;2023-02-03T06:43:40;99512.04;;;1.03;76.36
62703;BME280;66022;50.448;18.122;2023-02-03T06:47:53;99507.48;;;1.02;75.98
62703;BME280;66022;50.448;18.122;2023-02-03T06:52:08;99500.24;;;1.05;76.47
62703;BME280;66022;50.448;18.122;2023-02-03T06:56:22;99495.06;;;1.06;76.68
62703;BME280;66022;50.448;18.122;2023-02-03T07:00:36;99490.92;;;1.09;76.57
62703;BME280;66022;50.448;18.122;2023-02-03T07:04:50;99488.23;;;1.11;76.61
62703;BME280;66022;50.448;18.122;2023-02-03T07:09:04;99486.19;;;1.14;76.56
62703;BME280;66022;50.448;18.122;2023-02-03T07:13:18;99482.29;;;1.17;76.68
62703;BME280;66022;50.448;18.122;2023-02-03T07:17:32;99480.55;;;1.16;77.58
62703;BME280;66022;50.448;18.122;2023-02-03T07:21:46;99477.64;;;1.21;77.20
62703;BME280;66022;50.448;18.122;2023-02-03T07:26:00;99473.30;;;1.23;78.34
62703;BME280;66022;50.448;18.122;2023-02-03T07:30:14;99466.94;;;1.29;79.34
62703;BME280;66022;50.448;18.122;2023-02-03T07:34:28;99459.42;;;1.34;79.40
62703;BME280;66022;50.448;18.122;2023-02-03T07:38:42;99451.05;;;1.37;79.42
62703;BME280;66022;50.448;18.122;2023-02-03T07:42:56;99443.58;;;1.42;79.41
62703;BME280;66022;50.448;18.122;2023-02-03T07:47:10;99435.25;;;1.44;80.31
62703;BME280;66022;50.448;18.122;2023-02-03T07:51:24;99426.25;;;1.49;79.58
62703;BME280;66022;50.448;18.122;2023-02-03T07:55:38;99416.39;;;1.49;80.98
62703;BME280;66022;50.448;18.122;2023-02-03T07:59:52;99405.94;;;1.53;79.92
62703;BME280;66022;50.448;18.122;2023-02-03T08:04:06;99395.86;;;1.56;80.39
62703;BME280;66022;50.448;18.122;2023-02-03T08:08:20;99384.85;;;1.55;81.63
62703;BME280;66022;50.448;18.122;2023-02-03T08:12:34;99375.08;;;1.55;82.45
62703;BME280;66022;50.448;18.122;2023-02-03T08:16:48;99364.03;;;1.54;84.12
62703;BME280;66022;50.448;18.122;2023-02-03T08:21:02;99352.56;;;1.54;84.18
62703;BME280;66022;50.448;18.122;2023-02-03T08:25:19;99340.05;;;1.50;87.38
62703;BME280;66022;50.448;18.122;2023-02-03T08:29:30;99326.79;;;1.50;86.23
62703;BME280;66022;50.448;18.122;2023-02-03T08:33:44;99313.31;;;1.49;86.80
62703;BME280;66022;50.448;18.122;2023-02-03T08:37:58;99297.61;;;1.45;87.69
62703;BME280;66022;50.448;18.122;2023-02-03T08:42:12;99283.70;;;1.45;87.90
62703;BME280;66022;50.448;18.122;2023-02-03T08:46:26;99271.14;;;1.42;90.31
62703;BME280;66022;50.448;18.122;2023-02-03T08:50:41;99257.15;;;1.42;88.82
62703;BME280;66022;50.448;18.122;2023-02-03T08:54:54;99249.44;;;1.42;88.73
62703;BME280;66022;50.448;18.122;2023-02-03T08:59:08;99238.39;;;1.43;89.73
62703;BME280;66022;50.448;18.122;2023-02-03T09:03:22;99222.52;;;1.45;89.63
62703;BME280;66022;50.448;18.122;2023-02-03T09:07:36;99210.99;;;1.44;90.70
62703;BME280;66022;50.448;18.122;2023-02-03T09:11:50;99199.94;;;1.47;89.98
62703;BME280;66022;50.448;18.122;2023-02-03T09:16:07;99192.24;;;1.48;92.23
62703;BME280;66022;50.448;18.122;2023-02-03T09:20:18;99181.61;;;1.50;90.11
62703;BME280;66022;50.448;18.122;2023-02-03T09:24:32;99172.00;;;1.52;90.11
62703;BME280;66022;50.448;18.122;2023-02-03T09:28:46;99162.95;;;1.54;91.42
62703;BME280;66022;50.448;18.122;2023-02-03T09:33:00;99153.77;;;1.57;91.08
62703;BME280;66022;50.448;18.122;2023-02-03T09:37:14;99141.69;;;1.57;91.92
62703;BME280;66022;50.448;18.122;2023-02-03T09:45:42;99121.19;;;1.61;93.70
62703;BME280;66022;50.448;18.122;2023-02-03T09:49:57;99113.94;;;1.65;90.24
62703;BME280;66022;50.448;18.122;2023-02-03T09:58:24;99092.66;;;1.72;90.33
62703;BME280;66022;50.448;18.122;2023-02-03T10:19:47;99038.65;;;1.89;89.54
62703;BME280;66022;50.448;18.122;2023-02-03T10:23:56;99026.75;;;1.93;89.25
62703;BME280;66022;50.448;18.122;2023-02-03T10:28:17;99013.37;;;1.96;89.48
62703;BME280;66022;50.448;18.122;2023-02-03T10:32:25;98999.83;;;2.01;89.09
62703;BME280;66022;50.448;18.122;2023-02-03T10:40:52;98974.11;;;2.08;89.02
62703;BME280;66022;50.448;18.122;2023-02-03T10:45:09;98961.84;;;2.09;90.35
62703;BME280;66022;50.448;18.122;2023-02-03T10:49:20;98948.78;;;2.12;88.82
62703;BME280;66022;50.448;18.122;2023-02-03T10:53:34;98935.22;;;2.16;88.57
62703;BME280;66022;50.448;18.122;2023-02-03T10:57:48;98920.70;;;2.17;88.87
62703;BME280;66022;50.448;18.122;2023-02-03T11:06:16;98887.66;;;2.23;90.37
62703;BME280;66022;50.448;18.122;2023-02-03T11:14:45;98855.80;;;2.32;88.39
62703;BME280;66022;50.448;18.122;2023-02-03T11:19:01;98838.48;;;2.36;88.89
62703;BME280;66022;50.448;18.122;2023-02-03T11:23:12;98822.60;;;2.41;89.35
62703;BME280;66022;50.448;18.122;2023-02-03T11:27:27;98810.82;;;2.41;89.66
62703;BME280;66022;50.448;18.122;2023-02-03T11:31:40;98795.65;;;2.45;88.98
62703;BME280;66022;50.448;18.122;2023-02-03T11:35:57;98785.12;;;2.45;91.97
62703;BME280;66022;50.448;18.122;2023-02-03T11:44:23;98764.00;;;2.52;88.85
62703;BME280;66022;50.448;18.122;2023-02-03T11:48:43;98751.29;;;2.53;89.55
62703;BME280;66022;50.448;18.122;2023-02-03T12:05:35;98697.67;;;2.57;92.40
62703;BME280;66022;50.448;18.122;2023-02-03T12:22:36;98643.91;;;2.68;89.75
62703;BME280;66022;50.448;18.122;2023-02-03T12:26:46;98632.48;;;2.69;91.10
62703;BME280;66022;50.448;18.122;2023-02-03T12:39:28;98596.41;;;2.72;90.01
62703;BME280;66022;50.448;18.122;2023-02-03T12:52:10;98552.69;;;2.73;90.65
62703;BME280;66022;50.448;18.122;2023-02-03T13:13:17;98494.55;;;2.95;90.05
62703;BME280;66022;50.448;18.122;2023-02-03T13:17:32;98484.39;;;2.96;91.00
62703;BME280;66022;50.448;18.122;2023-02-03T13:21:45;98472.67;;;3.02;90.04
62703;BME280;66022;50.448;18.122;2023-02-03T13:42:55;98422.47;;;3.20;90.43
62703;BME280;66022;50.448;18.122;2023-02-03T13:47:13;98412.84;;;3.20;91.71
62703;BME280;66022;50.448;18.122;2023-02-03T13:51:25;98403.10;;;3.22;90.91
62703;BME280;66022;50.448;18.122;2023-02-03T13:55:37;98392.10;;;3.18;94.58
62703;BME280;66022;50.448;18.122;2023-02-03T13:59:50;98381.36;;;3.19;91.54
62703;BME280;66022;50.448;18.122;2023-02-03T14:04:05;98370.26;;;3.21;90.82
62703;BME280;66022;50.448;18.122;2023-02-03T14:12:33;98351.26;;;3.29;90.25
62703;BME280;66022;50.448;18.122;2023-02-03T14:16:49;98342.86;;;3.33;91.75
62703;BME280;66022;50.448;18.122;2023-02-03T14:25:14;98330.03;;;3.37;93.25
62703;BME280;66022;50.448;18.122;2023-02-03T14:29:28;98328.88;;;3.43;91.68
62703;BME280;66022;50.448;18.122;2023-02-03T14:33:49;98327.48;;;3.51;91.61
62703;BME280;66022;50.448;18.122;2023-02-03T14:38:03;98328.02;;;3.57;92.87
62703;BME280;66022;50.448;18.122;2023-02-03T14:42:13;98329.71;;;3.65;92.17
62703;BME280;66022;50.448;18.122;2023-02-03T14:54:56;98345.86;;;3.87;93.45
62703;BME280;66022;50.448;18.122;2023-02-03T14:59:07;98349.24;;;3.97;93.96
62703;BME280;66022;50.448;18.122;2023-02-03T15:03:25;98348.49;;;4.06;94.03
62703;BME280;66022;50.448;18.122;2023-02-03T15:07:35;98346.33;;;4.12;94.71
62703;BME280;66022;50.448;18.122;2023-02-03T15:11:48;98346.56;;;4.21;93.17
62703;BME280;66022;50.448;18.122;2023-02-03T15:16:02;98345.42;;;4.26;95.22
62703;BME280;66022;50.448;18.122;2023-02-03T15:24:33;98346.83;;;4.39;92.85
62703;BME280;66022;50.448;18.122;2023-02-03T15:28:52;98351.45;;;4.44;93.00
62703;BME280;66022;50.448;18.122;2023-02-03T15:37:22;98361.95;;;4.48;92.88
62703;BME280;66022;50.448;18.122;2023-02-03T15:41:26;98369.34;;;4.51;91.89
62703;BME280;66022;50.448;18.122;2023-02-03T15:49:56;98378.81;;;4.51;91.53
62703;BME280;66022;50.448;18.122;2023-02-03T15:58:31;98390.03;;;4.50;91.56
62703;BME280;66022;50.448;18.122;2023-02-03T16:02:40;98395.97;;;4.49;91.08
62703;BME280;66022;50.448;18.122;2023-02-03T16:06:50;98401.40;;;4.47;92.28
62703;BME280;66022;50.448;18.122;2023-02-03T16:15:22;98409.91;;;4.43;93.19
62703;BME280;66022;50.448;18.122;2023-02-03T16:19:32;98412.59;;;4.43;91.46
62703;BME280;66022;50.448;18.122;2023-02-03T16:23:49;98413.81;;;4.44;91.31
62703;BME280;66022;50.448;18.122;2023-02-03T16:32:16;98413.15;;;4.44;91.21
62703;BME280;66022;50.448;18.122;2023-02-03T16:36:28;98412.91;;;4.43;92.41
62703;BME280;66022;50.448;18.122;2023-02-03T16:40:42;98414.00;;;4.44;90.98
62703;BME280;66022;50.448;18.122;2023-02-03T16:44:56;98415.58;;;4.43;90.96
62703;BME280;66022;50.448;18.122;2023-02-03T16:49:10;98417.50;;;4.43;91.37
62703;BME280;66022;50.448;18.122;2023-02-03T16:53:25;98420.37;;;4.44;90.87
62703;BME280;66022;50.448;18.122;2023-02-03T16:57:38;98422.27;;;4.41;91.82
62703;BME280;66022;50.448;18.122;2023-02-03T17:01:53;98426.97;;;4.44;91.14
62703;BME280;66022;50.448;18.122;2023-02-03T17:06:07;98432.05;;;4.43;93.25
62703;BME280;66022;50.448;18.122;2023-02-03T17:10:20;98439.10;;;4.45;91.36
62703;BME280;66022;50.448;18.122;2023-02-03T17:14:34;98444.16;;;4.46;91.76
62703;BME280;66022;50.448;18.122;2023-02-03T17:18:48;98448.05;;;4.46;92.27
62703;BME280;66022;50.448;18.122;2023-02-03T17:23:02;98452.89;;;4.47;92.19
62703;BME280;66022;50.448;18.122;2023-02-03T17:27:16;98459.46;;;4.46;92.81
62703;BME280;66022;50.448;18.122;2023-02-03T17:31:30;98464.90;;;4.48;91.68
62703;BME280;66022;50.448;18.122;2023-02-03T17:35:44;98469.44;;;4.47;93.80
62703;BME280;66022;50.448;18.122;2023-02-03T17:39:58;98474.25;;;4.49;91.30
62703;BME280;66022;50.448;18.122;2023-02-03T17:44:12;98475.05;;;4.50;91.15
62703;BME280;66022;50.448;18.122;2023-02-03T17:48:26;98478.96;;;4.50;90.91
62703;BME280;66022;50.448;18.122;2023-02-03T17:52:40;98483.09;;;4.52;90.38
62703;BME280;66022;50.448;18.122;2023-02-03T17:56:54;98487.34;;;4.52;90.79
62703;BME280;66022;50.448;18.122;2023-02-03T18:01:09;98491.74;;;4.53;89.65
62703;BME280;66022;50.448;18.122;2023-02-03T18:05:22;98495.94;;;4.51;90.86
62703;BME280;66022;50.448;18.122;2023-02-03T18:09:36;98498.49;;;4.53;91.38
62703;BME280;66022;50.448;18.122;2023-02-03T18:13:50;98505.28;;;4.56;89.80
62703;BME280;66022;50.448;18.122;2023-02-03T18:18:04;98512.85;;;4.56;89.87
62703;BME280;66022;50.448;18.122;2023-02-03T18:22:18;98521.32;;;4.57;89.95
62703;BME280;66022;50.448;18.122;2023-02-03T18:26:33;98528.17;;;4.53;91.34
62703;BME280;66022;50.448;18.122;2023-02-03T18:30:46;98533.01;;;4.51;90.18
62703;BME280;66022;50.448;18.122;2023-02-03T18:35:00;98536.47;;;4.47;90.56
62703;BME280;66022;50.448;18.122;2023-02-03T18:39:23;98540.09;;;4.44;90.47
62703;BME280;66022;50.448;18.122;2023-02-03T18:43:28;98542.60;;;4.41;90.35
62703;BME280;66022;50.448;18.122;2023-02-03T18:47:42;98545.25;;;4.34;91.20
62703;BME280;66022;50.448;18.122;2023-02-03T18:51:56;98545.00;;;4.33;90.72
62703;BME280;66022;50.448;18.122;2023-02-03T19:00:24;98541.87;;;4.29;90.99
62703;BME280;66022;50.448;18.122;2023-02-03T19:04:39;98540.73;;;4.28;91.08
62703;BME280;66022;50.448;18.122;2023-02-03T19:08:52;98539.40;;;4.27;91.51
62703;BME280;66022;50.448;18.122;2023-02-03T19:13:06;98538.59;;;4.26;91.44
62703;BME280;66022;50.448;18.122;2023-02-03T19:17:20;98538.45;;;4.23;92.94
62703;BME280;66022;50.448;18.122;2023-02-03T19:21:34;98537.41;;;4.24;91.91
62703;BME280;66022;50.448;18.122;2023-02-03T19:25:51;98537.68;;;4.23;93.68
62703;BME280;66022;50.448;18.122;2023-02-03T19:30:02;98535.83;;;4.25;91.71
62703;BME280;66022;50.448;18.122;2023-02-03T19:34:16;98534.40;;;4.27;91.58
62703;BME280;66022;50.448;18.122;2023-02-03T19:38:30;98532.82;;;4.28;91.89
62703;BME280;66022;50.448;18.122;2023-02-03T19:42:44;98531.70;;;4.31;91.69
62703;BME280;66022;50.448;18.122;2023-02-03T19:46:58;98531.78;;;4.33;92.39
62703;BME280;66022;50.448;18.122;2023-02-03T19:51:12;98528.36;;;4.35;91.51
62703;BME280;66022;50.448;18.122;2023-02-03T19:59:40;98524.49;;;4.38;91.11
62703;BME280;66022;50.448;18.122;2023-02-03T20:03:54;98523.46;;;4.42;91.36
62703;BME280;66022;50.448;18.122;2023-02-03T20:08:08;98520.94;;;4.44;91.13
62703;BME280;66022;50.448;18.122;2023-02-03T20:12:22;98521.56;;;4.48;90.96
62703;BME280;66022;50.448;18.122;2023-02-03T20:16:39;98520.31;;;4.51;92.14
62703;BME280;66022;50.448;18.122;2023-02-03T20:20:53;98520.84;;;4.55;91.06
62703;BME280;66022;50.448;18.122;2023-02-03T20:29:21;98521.73;;;4.60;90.91
62703;BME280;66022;50.448;18.122;2023-02-03T20:33:37;98522.99;;;4.63;90.73
62703;BME280;66022;50.448;18.122;2023-02-03T20:42:00;98525.12;;;4.68;90.18
62703;BME280;66022;50.448;18.122;2023-02-03T20:46:16;98527.93;;;4.70;91.16
62703;BME280;66022;50.448;18.122;2023-02-03T20:50:29;98531.13;;;4.74;90.40
62703;BME280;66022;50.448;18.122;2023-02-03T20:54:45;98534.42;;;4.76;90.33
62703;BME280;66022;50.448;18.122;2023-02-03T20:58:56;98537.58;;;4.79;90.64
62703;BME280;66022;50.448;18.122;2023-02-03T21:03:10;98539.70;;;4.82;90.35
62703;BME280;66022;50.448;18.122;2023-02-03T21:07:29;98539.72;;;4.81;90.95
62703;BME280;66022;50.448;18.122;2023-02-03T21:11:38;98539.84;;;4.84;90.64
62703;BME280;66022;50.448;18.122;2023-02-03T21:15:57;98541.38;;;4.83;92.90
62703;BME280;66022;50.448;18.122;2023-02-03T21:20:25;98542.00;;;4.85;90.87
62703;BME280;66022;50.448;18.122;2023-02-03T21:24:24;98541.41;;;4.86;90.59
62703;BME280;66022;50.448;18.122;2023-02-03T21:28:34;98537.40;;;4.87;90.79
62703;BME280;66022;50.448;18.122;2023-02-03T21:32:48;98534.80;;;4.89;90.47
62703;BME280;66022;50.448;18.122;2023-02-03T21:37:44;98531.87;;;4.90;91.03
62703;BME280;66022;50.448;18.122;2023-02-03T21:41:17;98529.35;;;4.92;90.01
62703;BME280;66022;50.448;18.122;2023-02-03T21:45:34;98525.20;;;4.90;91.80
62703;BME280;66022;50.448;18.122;2023-02-03T21:49:44;98523.03;;;4.92;89.76
62703;BME280;66022;50.448;18.122;2023-02-03T21:53:59;98518.86;;;4.94;89.73
62703;BME280;66022;50.448;18.122;2023-02-03T22:06:46;98517.72;;;4.97;89.92
62703;BME280;66022;50.448;18.122;2023-02-03T22:10:54;98516.71;;;5.00;89.11
62703;BME280;66022;50.448;18.122;2023-02-03T22:15:08;98515.86;;;4.99;90.29
62703;BME280;66022;50.448;18.122;2023-02-03T22:19:25;98514.11;;;5.01;88.87
62703;BME280;66022;50.448;18.122;2023-02-03T22:23:36;98513.84;;;5.03;89.16
62703;BME280;66022;50.448;18.122;2023-02-03T22:27:50;98512.58;;;5.02;89.45
62703;BME280;66022;50.448;18.122;2023-02-03T22:32:04;98512.57;;;5.05;89.07
62703;BME280;66022;50.448;18.122;2023-02-03T22:36:18;98511.07;;;5.05;90.43
62703;BME280;66022;50.448;18.122;2023-02-03T22:40:32;98509.38;;;5.07;88.94
62703;BME280;66022;50.448;18.122;2023-02-03T22:44:46;98509.61;;;5.09;89.07
62703;BME280;66022;50.448;18.122;2023-02-03T22:49:00;98507.39;;;5.10;89.21
62703;BME280;66022;50.448;18.122;2023-02-03T22:53:14;98504.39;;;5.12;88.61
62703;BME280;66022;50.448;18.122;2023-02-03T22:57:28;98501.84;;;5.10;88.87
62703;BME280;66022;50.448;18.122;2023-02-03T23:01:42;98500.73;;;5.11;88.84
62703;BME280;66022;50.448;18.122;2023-02-03T23:05:56;98497.34;;;5.11;90.24
62703;BME280;66022;50.448;18.122;2023-02-03T23:10:14;98496.31;;;5.13;89.04
62703;BME280;66022;50.448;18.122;2023-02-03T23:14:24;98497.96;;;5.14;88.93
62703;BME280;66022;50.448;18.122;2023-02-03T23:18:38;98496.78;;;5.14;88.93
62703;BME280;66022;50.448;18.122;2023-02-03T23:22:52;98497.13;;;5.15;88.85
62703;BME280;66022;50.448;18.122;2023-02-03T23:27:06;98496.11;;;5.14;89.23
62703;BME280;66022;50.448;18.122;2023-02-03T23:31:20;98495.03;;;5.15;89.04
62703;BME280;66022;50.448;18.122;2023-02-03T23:35:34;98493.00;;;5.11;91.38
62703;BME280;66022;50.448;18.122;2023-02-03T23:39:48;98492.41;;;5.11;89.93
62703;BME280;66022;50.448;18.122;2023-02-03T23:44:02;98491.41;;;5.10;90.50
62703;BME280;66022;50.448;18.122;2023-02-03T23:48:16;98489.87;;;5.08;91.26
62703;BME280;66022;50.448;18.122;2023-02-03T23:52:30;98486.82;;;5.07;91.09
62703;BME280;66022;50.448;18.122;2023-02-03T23:56:44;98486.92;;;5.05;92.36
